JST522 YMML-YSSY
Flight info
| Callsign | JST522 |
|---|---|
| Flight time | 1h 4m |
| Altitude | 39000 |
| Route | ML H129 DOSEL Y59 RIVET |
| Aircraft | A320/M-SDE3FGHIRWY/LB1 |
Departure
| Time | 2026-05-04 09:07 |
|---|---|
| Airport | Melbourne Airport (YMML) |
Arrival
| Time | 2026-05-04 10:12 |
|---|---|
| Airport | Sydney Kingsford Smith International Airport (YSSY) |
| Time | Latitude | Longitude | Altitude | Speed | Heading |
|---|---|---|---|---|---|
| 2026-05-04 08:12 | -37.67573 | 144.84657 | 378 ft | 0 kts | 81° |
| 2026-05-04 09:01 | -37.67600 | 144.84560 | 375 ft | 1 kts | 352° |
| 2026-05-04 09:01 | -37.67577 | 144.84556 | 376 ft | 4 kts | 352° |
| 2026-05-04 09:01 | -37.67559 | 144.84552 | 376 ft | 1 kts | 352° |
| 2026-05-04 09:03 | -37.67557 | 144.84552 | 376 ft | 3 kts | 352° |
| 2026-05-04 09:04 | -37.67511 | 144.84543 | 378 ft | 7 kts | 351° |
| 2026-05-04 09:04 | -37.67473 | 144.84495 | 378 ft | 11 kts | 295° |
| 2026-05-04 09:04 | -37.67481 | 144.84361 | 376 ft | 19 kts | 261° |
| 2026-05-04 09:04 | -37.67502 | 144.84180 | 372 ft | 22 kts | 255° |
| 2026-05-04 09:05 | -37.67635 | 144.84141 | 372 ft | 15 kts | 172° |
| 2026-05-04 09:05 | -37.67751 | 144.84162 | 363 ft | 16 kts | 172° |
| 2026-05-04 09:05 | -37.67859 | 144.84143 | 366 ft | 18 kts | 226° |
| 2026-05-04 09:05 | -37.67884 | 144.83999 | 358 ft | 8 kts | 264° |
| 2026-05-04 09:06 | -37.67847 | 144.83962 | 360 ft | 8 kts | 351° |
| 2026-05-04 09:07 | -37.62332 | 144.82903 | 2184 ft | 173 kts | 346° |
| 2026-05-04 09:08 | -37.61069 | 144.82646 | 2467 ft | 194 kts | 345° |
| 2026-05-04 09:08 | -37.59641 | 144.82405 | 2797 ft | 223 kts | 354° |
| 2026-05-04 09:08 | -37.58050 | 144.82879 | 3339 ft | 249 kts | 18° |
| 2026-05-04 09:08 | -37.56463 | 144.83855 | 4170 ft | 257 kts | 19° |
| 2026-05-04 09:09 | -37.54835 | 144.84854 | 5031 ft | 262 kts | 19° |
| 2026-05-04 09:09 | -37.53180 | 144.85867 | 5860 ft | 267 kts | 19° |
| 2026-05-04 09:09 | -37.51489 | 144.86896 | 6690 ft | 272 kts | 19° |
| 2026-05-04 09:09 | -37.49769 | 144.87945 | 7484 ft | 277 kts | 20° |
| 2026-05-04 09:10 | -37.48017 | 144.89011 | 8257 ft | 282 kts | 20° |
| 2026-05-04 09:10 | -37.46236 | 144.90093 | 9028 ft | 286 kts | 20° |
| 2026-05-04 09:10 | -37.44480 | 144.91265 | 9812 ft | 295 kts | 29° |
| 2026-05-04 09:10 | -37.42903 | 144.93006 | 10379 ft | 314 kts | 45° |
| 2026-05-04 09:11 | -37.41549 | 144.95308 | 10597 ft | 339 kts | 51° |
| 2026-05-04 09:11 | -37.40172 | 144.97771 | 11094 ft | 349 kts | 51° |
| 2026-05-04 09:11 | -37.38772 | 145.00287 | 11737 ft | 353 kts | 51° |
| 2026-05-04 09:11 | -37.37352 | 145.02826 | 12465 ft | 356 kts | 51° |
| 2026-05-04 09:12 | -37.35921 | 145.05377 | 13181 ft | 359 kts | 51° |
| 2026-05-04 09:12 | -37.34468 | 145.07959 | 13869 ft | 364 kts | 51° |
| 2026-05-04 09:14 | -37.23905 | 145.26559 | 18190 ft | 385 kts | 50° |
| 2026-05-04 09:14 | -37.22341 | 145.29302 | 18761 ft | 387 kts | 50° |
| 2026-05-04 09:14 | -37.20769 | 145.32060 | 19321 ft | 390 kts | 50° |
| 2026-05-04 09:14 | -37.19185 | 145.34839 | 19910 ft | 393 kts | 50° |
| 2026-05-04 09:15 | -37.17592 | 145.37630 | 20487 ft | 395 kts | 50° |
| 2026-05-04 09:15 | -37.15984 | 145.40444 | 21038 ft | 398 kts | 50° |
| 2026-05-04 09:15 | -37.14367 | 145.43271 | 21567 ft | 401 kts | 50° |
| 2026-05-04 09:15 | -37.12758 | 145.46082 | 22072 ft | 404 kts | 50° |
| 2026-05-04 09:17 | -36.99259 | 145.69541 | 25671 ft | 426 kts | 47° |
| 2026-05-04 09:18 | -36.97516 | 145.72556 | 26062 ft | 429 kts | 46° |
| 2026-05-04 09:18 | -36.95785 | 145.75551 | 26450 ft | 432 kts | 46° |
| 2026-05-04 09:18 | -36.94022 | 145.78604 | 26829 ft | 434 kts | 45° |
| 2026-05-04 09:18 | -36.92250 | 145.81662 | 27229 ft | 435 kts | 45° |
| 2026-05-04 09:19 | -36.90468 | 145.84730 | 27630 ft | 437 kts | 45° |
| 2026-05-04 09:19 | -36.88678 | 145.87810 | 27978 ft | 439 kts | 44° |
| 2026-05-04 09:19 | -36.86875 | 145.90909 | 28327 ft | 443 kts | 44° |
| 2026-05-04 09:19 | -36.85060 | 145.94028 | 28683 ft | 445 kts | 44° |
| 2026-05-04 09:20 | -36.83236 | 145.97165 | 29058 ft | 448 kts | 44° |
| 2026-05-04 09:20 | -36.81401 | 146.00324 | 29420 ft | 451 kts | 44° |
| 2026-05-04 09:20 | -36.79553 | 146.03498 | 29776 ft | 453 kts | 43° |
| 2026-05-04 09:20 | -36.77693 | 146.06686 | 30118 ft | 455 kts | 43° |
| 2026-05-04 09:21 | -36.75853 | 146.09837 | 30418 ft | 457 kts | 44° |
| 2026-05-04 09:21 | -36.73976 | 146.13046 | 30681 ft | 460 kts | 44° |
| 2026-05-04 09:21 | -36.72085 | 146.16278 | 30948 ft | 463 kts | 44° |
| 2026-05-04 09:21 | -36.70188 | 146.19520 | 31295 ft | 463 kts | 44° |
| 2026-05-04 09:22 | -36.68289 | 146.22762 | 31683 ft | 463 kts | 44° |
| 2026-05-04 09:22 | -36.66387 | 146.26000 | 32059 ft | 463 kts | 44° |
| 2026-05-04 09:22 | -36.64486 | 146.29234 | 32427 ft | 463 kts | 44° |
| 2026-05-04 09:22 | -36.62581 | 146.32475 | 32740 ft | 464 kts | 44° |
| 2026-05-04 09:23 | -36.60676 | 146.35717 | 33086 ft | 465 kts | 44° |
| 2026-05-04 09:23 | -36.58793 | 146.38916 | 33447 ft | 465 kts | 44° |
| 2026-05-04 09:23 | -36.56882 | 146.42164 | 33824 ft | 466 kts | 44° |
| 2026-05-04 09:23 | -36.54966 | 146.45417 | 34167 ft | 466 kts | 44° |
| 2026-05-04 09:25 | -36.41427 | 146.68256 | 35975 ft | 472 kts | 45° |
| 2026-05-04 09:25 | -36.39501 | 146.71498 | 36222 ft | 473 kts | 45° |
| 2026-05-04 09:26 | -36.37546 | 146.74781 | 36480 ft | 474 kts | 45° |
| 2026-05-04 09:26 | -36.35586 | 146.78069 | 36704 ft | 474 kts | 45° |
| 2026-05-04 09:26 | -36.33624 | 146.81360 | 36926 ft | 475 kts | 45° |
| 2026-05-04 09:26 | -36.31659 | 146.84654 | 37131 ft | 475 kts | 46° |
| 2026-05-04 09:27 | -36.29694 | 146.87945 | 37385 ft | 475 kts | 46° |
| 2026-05-04 09:27 | -36.27729 | 146.91231 | 37617 ft | 475 kts | 46° |
| 2026-05-04 09:27 | -36.25759 | 146.94518 | 37833 ft | 475 kts | 46° |
| 2026-05-04 09:27 | -36.23788 | 146.97803 | 38044 ft | 475 kts | 46° |
| 2026-05-04 09:28 | -36.21814 | 147.01092 | 38218 ft | 476 kts | 46° |
| 2026-05-04 09:28 | -36.19868 | 147.04333 | 38420 ft | 476 kts | 46° |
| 2026-05-04 09:28 | -36.17896 | 147.07621 | 38606 ft | 476 kts | 46° |
| 2026-05-04 09:28 | -36.15922 | 147.10911 | 38756 ft | 476 kts | 46° |
| 2026-05-04 09:29 | -36.13947 | 147.14193 | 38902 ft | 475 kts | 46° |
| 2026-05-04 09:29 | -36.11975 | 147.17468 | 39025 ft | 475 kts | 46° |
| 2026-05-04 09:29 | -36.08018 | 147.24019 | 39057 ft | 476 kts | 45° |
| 2026-05-04 09:30 | -36.04049 | 147.30577 | 39068 ft | 477 kts | 45° |
| 2026-05-04 09:30 | -36.00102 | 147.37095 | 39069 ft | 477 kts | 45° |
| 2026-05-04 09:31 | -35.96127 | 147.43640 | 39072 ft | 476 kts | 45° |
| 2026-05-04 09:31 | -35.92146 | 147.50178 | 39080 ft | 477 kts | 45° |
| 2026-05-04 09:32 | -35.88167 | 147.56716 | 39084 ft | 477 kts | 45° |
| 2026-05-04 09:34 | -35.72200 | 147.82788 | 39102 ft | 478 kts | 45° |
| 2026-05-04 09:34 | -35.68188 | 147.89311 | 39104 ft | 478 kts | 45° |
| 2026-05-04 09:35 | -35.64168 | 147.95824 | 39084 ft | 478 kts | 45° |
| 2026-05-04 09:35 | -35.60146 | 148.02343 | 39096 ft | 478 kts | 45° |
| 2026-05-04 09:37 | -35.44060 | 148.28272 | 39106 ft | 478 kts | 44° |
| 2026-05-04 09:38 | -35.40024 | 148.34746 | 39115 ft | 478 kts | 44° |
| 2026-05-04 09:38 | -35.36014 | 148.41164 | 39097 ft | 477 kts | 44° |
| 2026-05-04 09:39 | -35.31972 | 148.47620 | 39102 ft | 477 kts | 44° |
| 2026-05-04 09:39 | -35.27934 | 148.54064 | 39106 ft | 477 kts | 44° |
| 2026-05-04 09:40 | -35.23894 | 148.60498 | 39111 ft | 477 kts | 44° |
| 2026-05-04 09:40 | -35.19850 | 148.66921 | 39090 ft | 476 kts | 44° |
| 2026-05-04 09:42 | -35.03692 | 148.92500 | 38230 ft | 483 kts | 44° |
| 2026-05-04 09:43 | -35.01629 | 148.95739 | 37647 ft | 482 kts | 44° |
| 2026-05-04 09:43 | -34.99606 | 148.98922 | 37059 ft | 481 kts | 43° |
| 2026-05-04 09:43 | -34.97551 | 149.02155 | 36315 ft | 484 kts | 43° |
| 2026-05-04 09:43 | -34.95488 | 149.05399 | 35665 ft | 483 kts | 43° |
| 2026-05-04 09:44 | -34.93448 | 149.08617 | 35227 ft | 478 kts | 43° |
| 2026-05-04 09:44 | -34.91418 | 149.11819 | 34687 ft | 476 kts | 43° |
| 2026-05-04 09:44 | -34.89397 | 149.14993 | 34196 ft | 473 kts | 43° |
| 2026-05-04 09:46 | -34.75643 | 149.36450 | 30681 ft | 445 kts | 43° |
| 2026-05-04 09:46 | -34.73824 | 149.39504 | 30175 ft | 450 kts | 50° |
| 2026-05-04 09:46 | -34.72328 | 149.42852 | 29628 ft | 450 kts | 53° |
| 2026-05-04 09:47 | -34.70871 | 149.46196 | 29192 ft | 444 kts | 53° |
| 2026-05-04 09:47 | -34.69433 | 149.49500 | 28705 ft | 440 kts | 53° |
| 2026-05-04 09:49 | -34.59739 | 149.71670 | 25603 ft | 416 kts | 53° |
| 2026-05-04 09:49 | -34.58378 | 149.74758 | 25144 ft | 415 kts | 53° |
| 2026-05-04 09:49 | -34.57014 | 149.77843 | 24678 ft | 414 kts | 52° |
| 2026-05-04 09:51 | -34.49060 | 149.95915 | 22213 ft | 397 kts | 53° |
| 2026-05-04 09:51 | -34.47768 | 149.98843 | 21676 ft | 390 kts | 53° |
| 2026-05-04 09:51 | -34.46494 | 150.01727 | 20836 ft | 385 kts | 54° |
| 2026-05-04 09:51 | -34.45246 | 150.04546 | 20288 ft | 373 kts | 54° |
| 2026-05-04 09:52 | -34.44045 | 150.07268 | 19839 ft | 359 kts | 54° |
| 2026-05-04 09:52 | -34.42888 | 150.09889 | 19412 ft | 347 kts | 54° |
| 2026-05-04 09:52 | -34.41761 | 150.12430 | 18975 ft | 337 kts | 53° |
| 2026-05-04 09:52 | -34.40679 | 150.14862 | 18569 ft | 328 kts | 53° |
| 2026-05-04 09:53 | -34.39609 | 150.17262 | 18139 ft | 319 kts | 53° |
| 2026-05-04 09:53 | -34.38564 | 150.19600 | 17721 ft | 320 kts | 53° |
| 2026-05-04 09:53 | -34.37459 | 150.22032 | 17331 ft | 334 kts | 54° |
| 2026-05-04 09:53 | -34.36343 | 150.24506 | 16946 ft | 335 kts | 54° |
| 2026-05-04 09:54 | -34.35198 | 150.27051 | 16634 ft | 355 kts | 54° |
| 2026-05-04 09:54 | -34.34005 | 150.29706 | 16355 ft | 361 kts | 55° |
| 2026-05-04 09:54 | -34.32809 | 150.32386 | 16108 ft | 362 kts | 55° |
| 2026-05-04 09:54 | -34.31616 | 150.35075 | 15859 ft | 362 kts | 56° |
| 2026-05-04 09:55 | -34.30429 | 150.37752 | 15613 ft | 360 kts | 55° |
| 2026-05-04 09:55 | -34.29242 | 150.40417 | 15368 ft | 360 kts | 55° |
| 2026-05-04 09:55 | -34.28074 | 150.43033 | 15129 ft | 357 kts | 55° |
| 2026-05-04 09:55 | -34.26895 | 150.45671 | 14888 ft | 356 kts | 55° |
| 2026-05-04 09:56 | -34.25723 | 150.48293 | 14643 ft | 353 kts | 56° |
| 2026-05-04 09:56 | -34.24561 | 150.50897 | 14403 ft | 352 kts | 56° |
| 2026-05-04 09:56 | -34.23402 | 150.53488 | 14047 ft | 349 kts | 56° |
| 2026-05-04 09:56 | -34.22254 | 150.56051 | 13607 ft | 346 kts | 56° |
| 2026-05-04 09:57 | -34.21114 | 150.58601 | 13177 ft | 343 kts | 56° |
| 2026-05-04 09:57 | -34.19980 | 150.61128 | 12745 ft | 341 kts | 56° |
| 2026-05-04 09:57 | -34.18850 | 150.63638 | 12337 ft | 340 kts | 56° |
| 2026-05-04 09:57 | -34.17733 | 150.66124 | 12068 ft | 332 kts | 55° |
| 2026-05-04 09:58 | -34.16644 | 150.68557 | 11673 ft | 328 kts | 56° |
| 2026-05-04 09:58 | -34.15558 | 150.70979 | 11212 ft | 327 kts | 56° |
| 2026-05-04 09:58 | -34.14490 | 150.73348 | 10767 ft | 327 kts | 56° |
| 2026-05-04 10:00 | -34.07457 | 150.88912 | 8258 ft | 292 kts | 55° |
| 2026-05-04 10:00 | -34.06489 | 150.91067 | 7929 ft | 291 kts | 55° |
| 2026-05-04 10:02 | -34.06706 | 151.06060 | 6005 ft | 304 kts | 138° |
| 2026-05-04 10:04 | -34.20459 | 151.11262 | 4477 ft | 277 kts | 145° |
| 2026-05-04 10:04 | -34.21751 | 151.12855 | 4304 ft | 259 kts | 114° |
| 2026-05-04 10:04 | -34.22224 | 151.14848 | 4131 ft | 240 kts | 88° |
| 2026-05-04 10:04 | -34.22277 | 151.16822 | 3953 ft | 231 kts | 83° |
| 2026-05-04 10:05 | -34.22274 | 151.18760 | 3780 ft | 230 kts | 83° |
| 2026-05-04 10:05 | -34.21970 | 151.20588 | 3600 ft | 216 kts | 53° |
| 2026-05-04 10:05 | -34.20977 | 151.21845 | 3439 ft | 205 kts | 28° |
| 2026-05-04 10:05 | -34.19758 | 151.22735 | 3266 ft | 205 kts | 24° |
| 2026-05-04 10:06 | -34.18490 | 151.23394 | 3106 ft | 192 kts | 7° |
| 2026-05-04 10:06 | -34.17213 | 151.23464 | 3048 ft | 179 kts | 349° |
| 2026-05-04 10:06 | -34.16066 | 151.23180 | 3003 ft | 162 kts | 346° |
| 2026-05-04 10:08 | -34.10236 | 151.21657 | 2721 ft | 137 kts | 347° |
| 2026-05-04 10:08 | -34.09305 | 151.21415 | 2548 ft | 136 kts | 347° |
| 2026-05-04 10:08 | -34.08373 | 151.21172 | 2377 ft | 137 kts | 349° |
| 2026-05-04 10:08 | -34.07458 | 151.20934 | 2205 ft | 135 kts | 347° |
| 2026-05-04 10:09 | -34.06541 | 151.20695 | 2044 ft | 135 kts | 348° |
| 2026-05-04 10:09 | -34.05622 | 151.20456 | 1852 ft | 136 kts | 350° |
| 2026-05-04 10:09 | -34.04707 | 151.20218 | 1671 ft | 135 kts | 349° |
| 2026-05-04 10:09 | -34.03788 | 151.19979 | 1493 ft | 134 kts | 348° |
| 2026-05-04 10:10 | -34.02871 | 151.19740 | 1314 ft | 135 kts | 348° |
| 2026-05-04 10:10 | -34.01952 | 151.19502 | 1130 ft | 135 kts | 345° |
| 2026-05-04 10:10 | -34.01030 | 151.19262 | 961 ft | 135 kts | 349° |
| 2026-05-04 10:10 | -34.00112 | 151.19023 | 790 ft | 133 kts | 349° |
| 2026-05-04 10:11 | -33.99215 | 151.18790 | 619 ft | 134 kts | 352° |
| 2026-05-04 10:11 | -33.98297 | 151.18550 | 445 ft | 136 kts | 352° |
| 2026-05-04 10:11 | -33.97369 | 151.18305 | 259 ft | 134 kts | 350° |
| 2026-05-04 10:11 | -33.96450 | 151.18071 | 61 ft | 134 kts | 350° |
| 2026-05-04 10:12 | -33.95592 | 151.17848 | 32 ft | 112 kts | 349° |
| 2026-05-04 10:12 | -33.94988 | 151.17692 | 28 ft | 64 kts | 347° |
| 2026-05-04 10:12 | -33.94678 | 151.17651 | 29 ft | 33 kts | 4° |
| 2026-05-04 10:12 | -33.94469 | 151.17701 | 30 ft | 29 kts | 21° |
| 2026-05-04 10:13 | -33.94333 | 151.17734 | 30 ft | 4 kts | 352° |
| 2026-05-04 10:13 | -33.94322 | 151.17732 | 30 ft | 4 kts | 350° |
| 2026-05-04 10:13 | -33.94308 | 151.17728 | 30 ft | 0 kts | 346° |
| 2026-05-04 10:14 | -33.94307 | 151.17728 | 30 ft | 0 kts | 346° |
| 2026-05-04 10:16 | -33.93971 | 151.17630 | 29 ft | 20 kts | 347° |
| 2026-05-04 10:16 | -33.93859 | 151.17598 | 29 ft | 16 kts | 346° |
| 2026-05-04 10:16 | -33.93761 | 151.17576 | 29 ft | 13 kts | 349° |
| 2026-05-04 10:16 | -33.93729 | 151.17568 | 29 ft | 1 kts | 347° |
| 2026-05-04 10:17 | -33.93721 | 151.17566 | 29 ft | 5 kts | 347° |
| 2026-05-04 10:17 | -33.93644 | 151.17545 | 29 ft | 16 kts | 347° |
| 2026-05-04 10:19 | -33.93515 | 151.17697 | 30 ft | 0 kts | 100° |